Terminal Aerodrome Forecast
Issued by NWS Cleveland, OH

Home | Current Version | Previous Version | Text Only | Print | Product List | Glossary On
Versions: 1 2 3 4 5 6 7 8 9 10 11 12 13 14 15 16 17 18 19 20 21 22 23 24 25 26 27 28
000
FTUS41 KCLE 012100 AAA
TAFCLE
TAF AMD
KCLE 012107Z 0121/0224 20015G25KT P6SM SCT040
     FM012300 20012G20KT P6SM VCTS BKN050CB
     FM020200 22008KT P6SM BKN070
     FM021100 22006KT 3SM RA BR VCTS OVC025CB
     FM021400 26008KT 5SM -RA BR OVC015
     FM021700 26008KT P6SM BKN025 OVC100
     FM021900 26006KT P6SM BKN100 OVC250=

USA.gov is the U.S. government's official web portal to all federal, state and local government web resources and services.